createdAt,value
2023-03-18T00:02:38.209Z,2.80
2023-03-18T00:05:40.757Z,2.10
2023-03-18T00:08:45.261Z,2.50
2023-03-18T00:11:47.063Z,3.00
2023-03-18T00:14:48.617Z,3.40
2023-03-18T00:17:50.135Z,2.80
2023-03-18T00:20:51.649Z,2.28
2023-03-18T00:23:56.468Z,3.45
2023-03-18T00:26:58.115Z,3.20
2023-03-18T00:29:59.639Z,3.67
2023-03-18T00:33:01.231Z,3.38
2023-03-18T00:36:03.065Z,3.17
2023-03-18T00:39:04.799Z,3.20
2023-03-18T00:42:10.716Z,3.47
2023-03-18T00:45:12.292Z,3.60
2023-03-18T00:48:14.463Z,3.17
2023-03-18T00:51:17.932Z,3.03
2023-03-18T00:54:20.861Z,2.90
2023-03-18T00:57:24.556Z,3.25
2023-03-18T01:00:26.277Z,2.88
2023-03-18T01:03:27.840Z,2.55
2023-03-18T01:06:32.520Z,3.42
2023-03-18T01:09:34.438Z,2.97
2023-03-18T01:12:37.600Z,2.55
2023-03-18T01:15:40.479Z,3.03
2023-03-18T01:18:42.600Z,2.20
2023-03-18T01:21:44.196Z,3.03
2023-03-18T01:24:47.138Z,2.25
2023-03-18T01:27:49.878Z,2.90
2023-03-18T01:30:51.629Z,2.40
2023-03-18T01:33:56.074Z,3.05
2023-03-18T01:36:57.969Z,3.03
2023-03-18T01:40:02.837Z,2.72
2023-03-18T01:43:18.004Z,2.97
2023-03-18T01:46:30.457Z,2.72
2023-03-18T01:49:39.430Z,3.03
2023-03-18T01:52:43.474Z,2.65
2023-03-18T01:55:47.156Z,2.78
2023-03-18T01:58:52.506Z,3.28
2023-03-18T02:02:01.232Z,2.97
2023-03-18T02:05:06.864Z,3.50
2023-03-18T02:08:08.399Z,2.97
2023-03-18T02:11:15.960Z,2.50
2023-03-18T02:14:21.912Z,3.58
2023-03-18T02:17:27.960Z,3.47
2023-03-18T02:20:45.921Z,3.15
2023-03-18T02:24:03.290Z,3.03
2023-03-18T02:27:25.626Z,2.42
2023-03-18T02:30:34.588Z,2.83
2023-03-18T02:33:40.445Z,2.67
2023-03-18T02:36:42.632Z,3.35
2023-03-18T02:39:44.781Z,3.00
2023-03-18T02:42:48.287Z,2.90
2023-03-18T02:46:07.108Z,2.97
2023-03-18T02:49:09.328Z,2.45
2023-03-18T02:52:11.968Z,2.53
2023-03-18T02:55:14.146Z,2.78
2023-03-18T02:58:16.503Z,2.70
2023-03-18T03:01:19.609Z,2.90
2023-03-18T03:04:23.806Z,3.10
2023-03-18T03:07:27.810Z,2.65
2023-03-18T03:10:31.640Z,2.88
2023-03-18T03:13:33.540Z,3.13
2023-03-18T03:16:36.164Z,2.83
2023-03-18T03:19:38.256Z,3.42
2023-03-18T03:22:39.791Z,2.95
2023-03-18T03:25:41.933Z,3.10
2023-03-18T03:28:44.476Z,3.33
2023-03-18T03:31:46.347Z,3.55
2023-03-18T03:34:49.132Z,3.05
2023-03-18T03:37:50.657Z,2.65
2023-03-18T03:40:53.859Z,3.25
2023-03-18T03:43:55.422Z,3.03
2023-03-18T03:46:56.986Z,2.90
2023-03-18T03:49:59.241Z,2.83
2023-03-18T03:53:00.904Z,2.50
2023-03-18T03:56:04.374Z,2.63
2023-03-18T03:59:06.011Z,3.10
2023-03-18T04:02:27.873Z,2.88
2023-03-18T04:05:30.732Z,2.97
2023-03-18T04:08:34.282Z,3.10
2023-03-18T04:11:36.736Z,2.70
2023-03-18T04:14:38.352Z,3.00
2023-03-18T04:17:40.722Z,3.33
2023-03-18T04:20:42.577Z,2.67
2023-03-18T04:23:59.001Z,2.70
2023-03-18T04:27:01.194Z,3.03
2023-03-18T04:30:03.769Z,2.90
2023-03-18T04:33:12.903Z,2.78
2023-03-18T04:36:15.727Z,2.75
2023-03-18T04:39:17.697Z,2.70
2023-03-18T04:42:19.639Z,2.60
2023-03-18T04:45:21.395Z,2.47
2023-03-18T04:48:23.432Z,2.50
2023-03-18T04:51:27.505Z,2.97
2023-03-18T04:54:30.875Z,2.65
2023-03-18T04:57:38.418Z,2.80
2023-03-18T05:00:43.890Z,2.92
2023-03-18T05:03:53.724Z,3.05
2023-03-18T05:06:58.243Z,2.85
2023-03-18T05:10:09.745Z,2.80
2023-03-18T05:13:11.570Z,2.95
2023-03-18T05:16:13.651Z,2.95
2023-03-18T05:19:15.671Z,3.55
2023-03-18T05:22:25.296Z,3.60
2023-03-18T05:25:48.968Z,3.88
2023-03-18T05:28:51.406Z,4.20
2023-03-18T05:32:04.331Z,3.67
2023-03-18T05:35:06.515Z,4.82
2023-03-18T05:38:17.197Z,3.50
2023-03-18T05:41:19.397Z,3.10
2023-03-18T05:44:21.859Z,3.80
2023-03-18T05:47:24.704Z,3.47
2023-03-18T05:50:41.886Z,3.67
2023-03-18T05:53:46.688Z,2.95
2023-03-18T05:56:55.260Z,3.30
2023-03-18T05:59:57.096Z,3.10
2023-03-18T06:03:00.042Z,3.28
2023-03-18T06:06:02.065Z,3.08
2023-03-18T06:09:04.161Z,3.15
2023-03-18T06:12:06.060Z,3.30
2023-03-18T06:15:09.007Z,3.20
2023-03-18T06:18:11.036Z,3.40
2023-03-18T06:21:13.206Z,3.38
2023-03-18T06:24:15.293Z,3.80
2023-03-18T06:27:17.529Z,3.03
2023-03-18T06:30:22.167Z,3.58
2023-03-18T06:33:25.847Z,2.85
2023-03-18T06:36:27.926Z,3.47
2023-03-18T06:39:29.778Z,4.10
2023-03-18T06:42:33.296Z,4.77
2023-03-18T06:45:48.316Z,5.82
2023-03-18T06:48:50.000Z,9.68
2023-03-18T06:51:57.217Z,7.88
2023-03-18T06:54:58.967Z,6.00
2023-03-18T06:58:00.760Z,4.97
2023-03-18T07:01:12.560Z,3.58
2023-03-18T07:04:16.969Z,3.78
2023-03-18T07:07:19.219Z,3.58
2023-03-18T07:10:23.651Z,4.30
2023-03-18T07:13:28.747Z,3.90
2023-03-18T07:16:30.834Z,3.90
2023-03-18T07:19:33.312Z,3.88
2023-03-18T07:22:35.090Z,2.95
2023-03-18T07:25:36.837Z,2.95
2023-03-18T07:28:38.690Z,3.15
2023-03-18T07:31:40.292Z,3.60
2023-03-18T07:34:42.546Z,4.00
2023-03-18T07:37:44.130Z,3.20
2023-03-18T07:40:46.384Z,2.58
2023-03-18T07:43:48.531Z,2.90
2023-03-18T07:46:50.050Z,2.75
2023-03-18T07:49:52.806Z,2.75
2023-03-18T07:52:54.262Z,2.70
2023-03-18T07:55:55.937Z,3.13
2023-03-18T07:58:57.453Z,3.63
2023-03-18T08:01:58.972Z,3.22
2023-03-18T08:05:00.659Z,2.95
2023-03-18T08:08:02.580Z,3.08
2023-03-18T08:11:04.205Z,2.58
2023-03-18T08:14:05.693Z,2.45
2023-03-18T08:17:07.402Z,1.88
2023-03-18T08:20:09.826Z,2.08
2023-03-18T08:23:11.653Z,1.90
2023-03-18T08:26:13.405Z,2.20
2023-03-18T08:29:14.904Z,3.25
2023-03-18T08:32:16.768Z,2.13
2023-03-18T08:35:20.957Z,2.22
2023-03-18T08:38:23.854Z,1.85
2023-03-18T08:41:26.093Z,2.28
2023-03-18T08:44:27.673Z,2.22
2023-03-18T08:47:29.535Z,2.35
2023-03-18T08:50:31.193Z,2.15
2023-03-18T08:53:32.713Z,2.20
2023-03-18T08:56:34.287Z,2.10
2023-03-18T08:59:36.596Z,2.03
2023-03-18T09:02:38.244Z,2.75
2023-03-18T09:05:40.259Z,2.10
2023-03-18T09:08:42.580Z,2.22
2023-03-18T09:11:46.376Z,2.30
2023-03-18T09:14:48.036Z,1.83
2023-03-18T09:18:07.827Z,2.20
2023-03-18T09:21:12.044Z,2.35
2023-03-18T09:24:13.617Z,2.00
2023-03-18T09:27:15.140Z,2.70
2023-03-18T09:30:16.647Z,1.60
2023-03-18T09:33:18.649Z,2.30
2023-03-18T09:36:20.237Z,2.38
2023-03-18T09:39:22.007Z,2.20
2023-03-18T09:42:32.174Z,1.67
2023-03-18T09:45:44.713Z,1.52
2023-03-18T09:48:56.861Z,2.45
2023-03-18T09:52:16.565Z,2.03
2023-03-18T09:55:30.349Z,2.53
2023-03-18T09:58:44.161Z,2.00
2023-03-18T10:01:49.061Z,2.15
2023-03-18T10:04:57.468Z,2.30
2023-03-18T10:08:07.743Z,2.10
2023-03-18T10:11:31.092Z,2.72
2023-03-18T10:14:39.988Z,2.17
2023-03-18T10:17:49.240Z,2.42
2023-03-18T10:21:02.967Z,2.28
2023-03-18T10:24:35.916Z,2.20
2023-03-18T10:27:49.236Z,1.88
2023-03-18T10:31:26.207Z,2.72
2023-03-18T10:34:40.332Z,3.10
2023-03-18T10:38:02.305Z,2.28
2023-03-18T10:41:36.543Z,2.95
2023-03-18T10:44:41.488Z,2.55
2023-03-18T10:47:49.403Z,2.13
2023-03-18T10:51:19.992Z,1.75
2023-03-18T10:54:27.150Z,2.28
2023-03-18T10:57:28.690Z,2.25
2023-03-18T11:00:33.830Z,2.88
2023-03-18T11:03:41.398Z,2.15
2023-03-18T11:07:18.693Z,2.38
2023-03-18T11:10:25.853Z,1.92
2023-03-18T11:13:27.471Z,2.38
2023-03-18T11:16:51.825Z,2.45
2023-03-18T11:20:10.697Z,2.10
2023-03-18T11:23:20.542Z,2.42
2023-03-18T11:26:27.304Z,2.40
2023-03-18T11:29:34.795Z,2.22
2023-03-18T11:32:37.116Z,2.15
2023-03-18T11:36:18.567Z,2.58
2023-03-18T11:39:20.152Z,2.38
2023-03-18T11:42:22.516Z,2.13
2023-03-18T11:45:56.156Z,2.20
2023-03-18T11:48:59.371Z,2.30
2023-03-18T11:52:28.958Z,2.30
2023-03-18T11:55:33.972Z,3.08
2023-03-18T11:59:01.856Z,2.40
2023-03-18T12:02:24.130Z,2.80
2023-03-18T12:06:02.391Z,2.38
2023-03-18T12:09:22.765Z,2.40
2023-03-18T12:12:34.313Z,3.40
2023-03-18T12:15:42.631Z,2.55
2023-03-18T12:18:50.940Z,2.70
2023-03-18T12:22:02.290Z,2.30
2023-03-18T12:25:20.634Z,2.95
2023-03-18T12:29:03.906Z,2.88
2023-03-18T12:32:23.984Z,2.45
2023-03-18T12:35:45.779Z,3.00
2023-03-18T12:39:08.637Z,2.65
2023-03-18T12:42:12.167Z,2.70
2023-03-18T12:45:20.760Z,2.88
2023-03-18T12:48:43.022Z,3.25
2023-03-18T12:51:54.175Z,3.05
2023-03-18T12:55:04.884Z,3.03
2023-03-18T12:58:18.080Z,3.00
2023-03-18T13:01:32.442Z,3.15
2023-03-18T13:04:38.517Z,2.83
2023-03-18T13:08:00.590Z,3.17
2023-03-18T13:11:12.256Z,3.20
2023-03-18T13:14:40.936Z,2.95
2023-03-18T13:17:44.942Z,2.90
2023-03-18T13:24:26.047Z,2.72
2023-03-18T13:27:41.727Z,2.50
2023-03-18T13:31:20.394Z,3.03
2023-03-18T13:34:49.910Z,2.85
2023-03-18T13:38:00.574Z,2.83
2023-03-18T13:41:22.420Z,3.25
2023-03-18T13:44:33.956Z,3.08
2023-03-18T13:47:40.554Z,3.10
2023-03-18T13:50:44.491Z,2.80
2023-03-18T13:56:55.296Z,3.03
2023-03-18T14:00:22.591Z,2.80
2023-03-18T14:03:29.768Z,2.80
2023-03-18T14:06:34.433Z,2.95
2023-03-18T14:10:18.274Z,3.10
2023-03-18T14:13:28.345Z,2.85
2023-03-18T14:16:37.706Z,3.40
2023-03-18T14:19:39.403Z,3.10
2023-03-18T14:22:41.387Z,3.22
2023-03-18T14:25:43.800Z,2.88
2023-03-18T14:28:48.962Z,2.85
2023-03-18T14:31:59.421Z,2.97
2023-03-18T14:35:28.060Z,2.60
2023-03-18T14:38:46.623Z,3.03
2023-03-18T14:41:52.290Z,2.95
2023-03-18T14:44:56.046Z,3.05
2023-03-18T14:47:58.543Z,3.00
2023-03-18T14:51:19.501Z,3.45
2023-03-18T14:54:25.022Z,3.00
2023-03-18T14:57:26.947Z,2.78
2023-03-18T15:00:32.314Z,3.05
2023-03-18T15:03:34.350Z,3.35
2023-03-18T15:06:39.099Z,2.90
2023-03-18T15:09:43.491Z,3.30
2023-03-18T15:12:56.393Z,2.80
2023-03-18T15:15:58.036Z,2.90
2023-03-18T15:18:59.576Z,2.92
2023-03-18T15:22:04.692Z,3.30
2023-03-18T15:25:08.497Z,3.00
2023-03-18T15:28:19.412Z,2.75
2023-03-18T15:31:41.302Z,2.83
2023-03-18T15:34:45.911Z,2.70
2023-03-18T15:38:03.708Z,3.20
2023-03-18T15:41:12.088Z,2.75
2023-03-18T15:44:16.748Z,3.00
2023-03-18T15:47:28.634Z,2.70
2023-03-18T15:50:33.870Z,3.22
2023-03-18T15:53:47.819Z,2.95
2023-03-18T15:56:51.666Z,3.25
2023-03-18T15:59:54.446Z,3.58
2023-03-18T16:02:55.901Z,2.92
2023-03-18T16:05:58.260Z,2.55
2023-03-18T16:09:00.799Z,2.90
2023-03-18T16:12:13.042Z,3.00
2023-03-18T16:15:21.999Z,3.05
2023-03-18T16:18:23.586Z,2.97
2023-03-18T16:21:25.583Z,3.33
2023-03-18T16:24:27.504Z,3.10
2023-03-18T16:27:31.824Z,3.05
2023-03-18T16:30:35.065Z,2.97
2023-03-18T16:33:36.635Z,2.90
2023-03-18T16:36:38.398Z,3.00
2023-03-18T16:39:39.934Z,3.20
2023-03-18T16:42:41.974Z,3.13
2023-03-18T16:45:43.903Z,2.25
2023-03-18T16:48:45.428Z,2.33
2023-03-18T16:51:47.681Z,2.95
2023-03-18T16:54:49.140Z,3.58
2023-03-18T16:57:58.025Z,2.22
2023-03-18T17:00:59.966Z,2.40
2023-03-18T17:04:06.180Z,3.33
2023-03-18T17:07:08.032Z,3.00
2023-03-18T17:10:11.381Z,3.42
2023-03-18T17:13:28.558Z,2.63
2023-03-18T17:16:32.039Z,2.60
2023-03-18T17:19:35.121Z,10.57
2023-03-18T17:22:36.639Z,21.83
2023-03-18T17:25:38.167Z,6.65
2023-03-18T17:28:45.295Z,7.30
2023-03-18T17:31:46.754Z,11.57
2023-03-18T17:34:51.244Z,30.17
2023-03-18T17:37:54.604Z,13.88
2023-03-18T17:40:56.617Z,9.02
2023-03-18T17:43:58.181Z,4.32
2023-03-18T17:46:59.706Z,3.13
2023-03-18T17:50:01.479Z,4.88
2023-03-18T17:53:03.072Z,8.45
2023-03-18T17:56:06.798Z,15.38
2023-03-18T17:59:19.483Z,8.18
2023-03-18T18:02:21.191Z,4.30
2023-03-18T18:05:23.167Z,10.75
2023-03-18T18:08:25.956Z,13.43
2023-03-18T18:11:32.476Z,4.13
2023-03-18T18:14:34.370Z,6.72
2023-03-18T18:17:36.122Z,7.20
2023-03-18T18:20:38.047Z,5.95
2023-03-18T18:23:40.109Z,19.20
2023-03-18T18:26:41.735Z,10.48
2023-03-18T18:29:45.985Z,4.82
2023-03-18T18:32:47.917Z,6.07
2023-03-18T18:35:49.492Z,25.73
2023-03-18T18:38:51.021Z,14.25
2023-03-18T18:41:52.943Z,14.98
2023-03-18T18:44:54.629Z,11.55
2023-03-18T18:47:57.339Z,8.40
2023-03-18T18:51:00.139Z,11.68
2023-03-18T18:54:02.418Z,7.07
2023-03-18T18:57:03.996Z,6.63
2023-03-18T19:00:11.410Z,8.63
2023-03-18T19:03:18.341Z,18.02
2023-03-18T19:06:29.232Z,21.80
2023-03-18T19:09:31.304Z,10.52
2023-03-18T19:12:32.826Z,9.20
2023-03-18T19:15:34.890Z,8.13
2023-03-18T19:18:41.391Z,8.57
2023-03-18T19:21:43.237Z,11.23
2023-03-18T19:24:49.385Z,8.63
2023-03-18T19:27:52.561Z,5.72
2023-03-18T19:30:54.554Z,4.38
2023-03-18T19:33:56.746Z,4.13
2023-03-18T19:36:58.490Z,5.68
2023-03-18T19:40:09.698Z,6.10
2023-03-18T19:43:16.555Z,10.07
2023-03-18T19:46:23.582Z,11.15
2023-03-18T19:49:37.529Z,5.75
2023-03-18T19:52:39.914Z,5.00
2023-03-18T19:55:42.173Z,5.00
2023-03-18T19:58:43.720Z,9.40
2023-03-18T20:01:45.414Z,8.82
2023-03-18T20:04:47.899Z,5.80
2023-03-18T20:07:50.486Z,5.90
2023-03-18T20:10:52.022Z,7.05
2023-03-18T20:13:53.597Z,6.13
2023-03-18T20:16:57.202Z,4.63
2023-03-18T20:20:01.368Z,11.88
2023-03-18T20:23:08.822Z,15.77
2023-03-18T20:26:11.942Z,12.30
2023-03-18T20:29:19.471Z,7.90
2023-03-18T20:32:21.029Z,9.98
2023-03-18T20:35:27.299Z,8.30
2023-03-18T20:38:43.859Z,7.50
2023-03-18T20:41:45.460Z,6.35
2023-03-18T20:44:46.993Z,6.22
2023-03-18T20:47:49.424Z,5.38
2023-03-18T20:50:52.312Z,5.10
2023-03-18T20:53:53.884Z,6.15
2023-03-18T20:56:55.785Z,5.60
2023-03-18T20:59:57.987Z,5.80
2023-03-18T21:03:01.956Z,6.18
2023-03-18T21:06:03.998Z,5.70
2023-03-18T21:09:07.043Z,4.90
2023-03-18T21:12:15.776Z,5.65
2023-03-18T21:15:21.238Z,5.72
2023-03-18T21:18:22.750Z,4.60
2023-03-18T21:21:31.256Z,4.70
2023-03-18T21:24:32.943Z,5.10
2023-03-18T21:27:34.637Z,4.53
2023-03-18T21:30:36.268Z,4.10
2023-03-18T21:33:38.745Z,4.10
2023-03-18T21:36:40.505Z,3.85
2023-03-18T21:39:42.784Z,4.00
2023-03-18T21:42:46.126Z,4.13
2023-03-18T21:45:50.321Z,3.88
2023-03-18T21:51:53.741Z,4.00
2023-03-18T21:54:55.356Z,4.35
2023-03-18T21:57:56.866Z,4.22
2023-03-18T22:00:59.779Z,4.70
2023-03-18T22:04:01.304Z,4.05
2023-03-18T22:07:02.963Z,4.50
2023-03-18T22:10:06.755Z,4.50
2023-03-18T22:13:24.896Z,4.55
2023-03-18T22:16:26.628Z,4.65
2023-03-18T22:19:28.189Z,4.43
2023-03-18T22:22:34.889Z,3.65
2023-03-18T22:25:36.931Z,4.53
2023-03-18T22:28:38.448Z,4.78
2023-03-18T22:31:41.496Z,3.90
2023-03-18T22:34:43.029Z,5.18
2023-03-18T22:37:45.738Z,4.57
2023-03-18T22:40:50.508Z,4.65
2023-03-18T22:43:52.091Z,5.63
2023-03-18T22:46:53.636Z,4.25
2023-03-18T22:49:55.306Z,4.53
2023-03-18T22:53:08.234Z,4.75
2023-03-18T22:56:16.545Z,4.60
2023-03-18T22:59:18.056Z,3.60
2023-03-18T23:02:23.089Z,3.72
2023-03-18T23:05:24.705Z,4.45
2023-03-18T23:08:27.584Z,3.58
2023-03-18T23:11:30.861Z,3.85
2023-03-18T23:14:32.809Z,3.93
2023-03-18T23:17:34.671Z,4.20
2023-03-18T23:20:36.881Z,3.75
2023-03-18T23:23:38.408Z,4.00
2023-03-18T23:26:39.906Z,4.57
2023-03-18T23:29:41.738Z,3.78
2023-03-18T23:32:43.353Z,3.80
2023-03-18T23:35:46.057Z,3.72
2023-03-18T23:38:47.544Z,3.90
2023-03-18T23:41:49.068Z,3.65
2023-03-18T23:44:50.553Z,4.50
2023-03-18T23:47:52.337Z,4.20
2023-03-18T23:50:53.905Z,4.03
2023-03-18T23:53:55.697Z,3.78
2023-03-18T23:56:57.160Z,4.38
2023-03-18T23:59:58.672Z,3.97
